createdAt,value
2024-01-28T00:01:55.453Z,11.95
2024-01-28T00:04:21.973Z,11.77
2024-01-28T00:06:48.451Z,11.82
2024-01-28T00:09:16.018Z,11.41
2024-01-28T00:11:42.435Z,11.76
2024-01-28T00:14:08.852Z,11.79
2024-01-28T00:16:35.300Z,10.51
2024-01-28T00:19:01.884Z,10.66
2024-01-28T00:21:28.359Z,10.36
2024-01-28T00:23:54.975Z,10.91
2024-01-28T00:26:21.529Z,11.48
2024-01-28T00:28:48.148Z,11.59
2024-01-28T00:31:16.974Z,11.75
2024-01-28T00:33:43.592Z,11.90
2024-01-28T00:36:10.218Z,11.93
2024-01-28T00:38:36.807Z,11.07
2024-01-28T00:41:03.584Z,11.32
2024-01-28T00:43:30.192Z,11.33
2024-01-28T00:45:56.845Z,11.23
2024-01-28T00:48:23.609Z,11.59
2024-01-28T00:50:50.260Z,11.71
2024-01-28T00:53:16.847Z,11.65
2024-01-28T00:55:43.441Z,12.36
2024-01-28T00:58:10.018Z,12.18
2024-01-28T01:00:36.645Z,12.07
2024-01-28T01:03:03.321Z,12.02
2024-01-28T01:05:29.972Z,12.14
2024-01-28T01:07:56.552Z,12.25
2024-01-28T01:10:23.251Z,11.89
2024-01-28T01:12:49.829Z,11.96
2024-01-28T01:15:16.514Z,11.78
2024-01-28T01:17:43.210Z,12.47
2024-01-28T01:20:09.801Z,11.95
2024-01-28T01:22:36.382Z,11.85
2024-01-28T01:25:03.271Z,11.62
2024-01-28T01:27:30.151Z,11.85
2024-01-28T01:29:56.750Z,11.87
2024-01-28T01:32:23.333Z,11.58
2024-01-28T01:34:50.140Z,11.34
2024-01-28T01:37:16.862Z,10.85
2024-01-28T01:39:43.584Z,10.70
2024-01-28T01:42:10.268Z,10.59
2024-01-28T01:44:36.924Z,10.99
2024-01-28T01:47:03.472Z,10.57
2024-01-28T01:49:30.137Z,10.64
2024-01-28T01:51:56.729Z,10.89
2024-01-28T01:54:23.341Z,10.91
2024-01-28T01:56:49.923Z,10.82
2024-01-28T01:59:16.468Z,10.96
2024-01-28T02:01:43.053Z,10.85
2024-01-28T02:04:09.743Z,10.89
2024-01-28T02:06:36.449Z,11.08
2024-01-28T02:09:03.129Z,10.98
2024-01-28T02:11:32.083Z,11.34
2024-01-28T02:13:58.653Z,11.24
2024-01-28T02:16:25.241Z,11.24
2024-01-28T02:18:52.022Z,11.05
2024-01-28T02:21:24.733Z,11.63
2024-01-28T02:23:51.370Z,11.15
2024-01-28T02:26:18.197Z,11.48
2024-01-28T02:28:44.793Z,11.49
2024-01-28T02:31:11.358Z,11.86
2024-01-28T02:33:38.113Z,11.42
2024-01-28T02:36:04.771Z,11.31
2024-01-28T02:38:31.339Z,11.64
2024-01-28T02:40:57.926Z,12.00
2024-01-28T02:43:24.478Z,11.04
2024-01-28T02:45:57.114Z,11.46
2024-01-28T02:48:23.707Z,11.74
2024-01-28T02:50:50.273Z,11.15
2024-01-28T02:53:16.848Z,11.39
2024-01-28T02:55:43.443Z,11.46
2024-01-28T02:58:10.037Z,12.06
2024-01-28T03:00:36.615Z,11.35
2024-01-28T03:03:03.294Z,11.39
2024-01-28T03:05:29.898Z,11.50
2024-01-28T03:07:57.476Z,11.29
2024-01-28T03:10:24.040Z,11.42
2024-01-28T03:12:50.709Z,11.34
2024-01-28T03:15:17.389Z,11.94
2024-01-28T03:17:44.000Z,12.11
2024-01-28T03:20:10.603Z,11.92
2024-01-28T03:22:37.248Z,11.75
2024-01-28T03:25:03.803Z,12.44
2024-01-28T03:27:30.416Z,12.26
2024-01-28T03:29:57.001Z,12.12
2024-01-28T03:32:23.579Z,12.00
2024-01-28T03:34:50.493Z,12.17
2024-01-28T03:37:17.297Z,12.43
2024-01-28T03:39:44.001Z,12.32
2024-01-28T03:42:10.640Z,12.75
2024-01-28T03:44:37.249Z,12.01
2024-01-28T03:47:03.824Z,11.47
2024-01-28T03:49:30.518Z,11.16
2024-01-28T03:51:58.582Z,11.32
2024-01-28T03:54:25.200Z,10.67
2024-01-28T03:56:51.817Z,11.29
2024-01-28T03:59:18.378Z,11.24
2024-01-28T04:01:45.132Z,11.29
2024-01-28T04:04:11.792Z,11.54
2024-01-28T04:06:38.436Z,11.39
2024-01-28T04:09:05.078Z,11.88
2024-01-28T04:11:31.640Z,11.93
2024-01-28T04:13:58.425Z,11.38
2024-01-28T04:16:27.374Z,11.58
2024-01-28T04:18:54.137Z,11.25
2024-01-28T04:21:20.794Z,10.83
2024-01-28T04:23:47.359Z,11.13
2024-01-28T04:26:13.907Z,11.29
2024-01-28T04:28:40.506Z,11.08
2024-01-28T04:31:07.068Z,11.23
2024-01-28T04:33:33.740Z,11.69
2024-01-28T04:36:00.382Z,11.42
2024-01-28T04:38:26.922Z,11.49
2024-01-28T04:40:55.104Z,11.48
2024-01-28T04:43:21.901Z,11.98
2024-01-28T04:45:48.557Z,11.38
2024-01-28T04:48:15.327Z,11.43
2024-01-28T04:50:42.004Z,11.62
2024-01-28T04:53:16.818Z,11.72
2024-01-28T04:55:43.368Z,11.78
2024-01-28T04:58:09.940Z,11.50
2024-01-28T05:00:36.799Z,11.59
2024-01-28T05:03:03.601Z,11.61
2024-01-28T05:05:30.123Z,12.24
2024-01-28T05:07:56.539Z,11.83
2024-01-28T05:10:22.969Z,11.88
2024-01-28T05:12:49.460Z,11.84
2024-01-28T05:15:15.880Z,11.48
2024-01-28T05:17:42.337Z,12.01
2024-01-28T05:20:08.766Z,12.03
2024-01-28T05:22:35.171Z,11.72
2024-01-28T05:25:01.581Z,11.66
2024-01-28T05:27:28.250Z,11.88
2024-01-28T05:29:54.712Z,11.50
2024-01-28T05:32:21.132Z,11.69
2024-01-28T05:34:47.625Z,11.32
2024-01-28T05:37:14.135Z,11.80
2024-01-28T05:39:40.551Z,11.58
2024-01-28T05:42:07.024Z,11.47
2024-01-28T05:44:35.914Z,11.67
2024-01-28T05:47:02.342Z,12.71
2024-01-28T05:49:28.806Z,12.57
2024-01-28T05:51:55.348Z,12.97
2024-01-28T05:54:21.820Z,12.49
2024-01-28T05:56:50.744Z,12.77
2024-01-28T05:59:17.162Z,12.87
2024-01-28T06:01:49.746Z,12.37
2024-01-28T06:04:16.508Z,12.51
2024-01-28T06:06:43.162Z,12.44
2024-01-28T06:09:09.827Z,12.49
2024-01-28T06:11:36.393Z,12.37
2024-01-28T06:14:03.039Z,12.56
2024-01-28T06:16:29.596Z,12.55
2024-01-28T06:18:56.281Z,12.40
2024-01-28T06:21:22.914Z,12.82
2024-01-28T06:23:49.519Z,12.38
2024-01-28T06:26:16.452Z,12.57
2024-01-28T06:28:43.156Z,12.87
2024-01-28T06:31:09.736Z,12.72
2024-01-28T06:33:36.406Z,12.59
2024-01-28T06:36:03.057Z,12.56
2024-01-28T06:38:29.611Z,12.53
2024-01-28T06:40:56.173Z,12.54
2024-01-28T06:43:22.730Z,12.54
2024-01-28T06:45:49.473Z,13.10
2024-01-28T06:48:16.202Z,12.60
2024-01-28T06:50:42.874Z,12.33
2024-01-28T06:53:09.438Z,12.26
2024-01-28T06:55:36.011Z,12.52
2024-01-28T06:58:02.591Z,12.75
2024-01-28T07:00:29.251Z,12.63
2024-01-28T07:02:58.887Z,12.77
2024-01-28T07:05:25.467Z,13.27
2024-01-28T07:07:52.039Z,13.72
2024-01-28T07:10:18.636Z,13.56
2024-01-28T07:12:47.411Z,14.10
2024-01-28T07:15:14.233Z,14.44
2024-01-28T07:17:40.969Z,14.31
2024-01-28T07:20:08.242Z,14.95
2024-01-28T07:22:34.910Z,15.66
2024-01-28T07:25:01.563Z,16.79
2024-01-28T07:27:28.196Z,16.82
2024-01-28T07:29:54.737Z,16.16
2024-01-28T07:32:21.275Z,15.36
2024-01-28T07:34:47.956Z,15.66
2024-01-28T07:37:14.576Z,15.44
2024-01-28T07:39:41.170Z,15.01
2024-01-28T07:42:07.815Z,15.95
2024-01-28T07:44:40.451Z,15.11
2024-01-28T07:47:07.014Z,14.66
2024-01-28T07:49:34.047Z,15.54
2024-01-28T07:52:00.684Z,15.38
2024-01-28T07:54:35.698Z,16.11
2024-01-28T07:57:02.521Z,15.90
2024-01-28T07:59:29.107Z,15.83
2024-01-28T08:01:55.701Z,15.63
2024-01-28T08:04:22.409Z,15.40
2024-01-28T08:06:49.180Z,15.61
2024-01-28T08:09:15.826Z,15.35
2024-01-28T08:11:42.406Z,15.32
2024-01-28T08:14:08.989Z,15.33
2024-01-28T08:16:35.574Z,15.48
2024-01-28T08:19:02.213Z,15.76
2024-01-28T08:21:28.925Z,15.22
2024-01-28T08:23:55.584Z,16.02
2024-01-28T08:26:22.173Z,16.42
2024-01-28T08:28:48.771Z,16.04
2024-01-28T08:31:15.360Z,16.26
2024-01-28T08:33:42.066Z,16.33
2024-01-28T08:36:08.712Z,16.86
2024-01-28T08:38:35.394Z,16.32
2024-01-28T08:41:01.971Z,16.25
2024-01-28T08:43:28.545Z,16.73
2024-01-28T08:45:55.201Z,16.40
2024-01-28T08:48:21.953Z,16.12
2024-01-28T08:50:48.591Z,16.09
2024-01-28T08:53:15.394Z,16.24
2024-01-28T08:55:41.986Z,16.30
2024-01-28T08:58:08.862Z,17.20
2024-01-28T09:00:35.607Z,17.02
2024-01-28T09:03:02.203Z,16.73
2024-01-28T09:05:29.109Z,16.66
2024-01-28T09:07:56.090Z,16.30
2024-01-28T09:10:22.673Z,16.00
2024-01-28T09:12:49.369Z,15.88
2024-01-28T09:15:16.174Z,16.39
2024-01-28T09:17:42.831Z,16.20
2024-01-28T09:20:09.453Z,14.70
2024-01-28T09:22:36.215Z,14.58
2024-01-28T09:25:02.764Z,14.59
2024-01-28T09:27:29.873Z,14.78
2024-01-28T09:29:56.674Z,15.06
2024-01-28T09:32:23.354Z,15.29
2024-01-28T09:34:50.036Z,15.10
2024-01-28T09:37:16.681Z,15.46
2024-01-28T09:39:43.345Z,15.02
2024-01-28T09:42:10.118Z,14.92
2024-01-28T09:44:36.699Z,14.65
2024-01-28T09:47:04.371Z,14.50
2024-01-28T09:49:31.034Z,15.19
2024-01-28T09:51:57.922Z,14.99
2024-01-28T09:54:24.674Z,15.65
2024-01-28T09:56:54.545Z,14.94
2024-01-28T09:59:30.961Z,15.05
2024-01-28T10:01:57.563Z,15.31
2024-01-28T10:04:26.646Z,15.23
2024-01-28T10:06:53.334Z,14.97
2024-01-28T10:09:19.997Z,15.18
2024-01-28T10:11:46.687Z,15.35
2024-01-28T10:14:13.585Z,15.41
2024-01-28T10:16:42.384Z,15.47
2024-01-28T10:19:15.253Z,15.24
2024-01-28T10:21:42.073Z,15.69
2024-01-28T10:24:08.772Z,15.55
2024-01-28T10:26:38.060Z,15.74
2024-01-28T10:29:05.268Z,15.39
2024-01-28T10:31:31.944Z,15.35
2024-01-28T10:34:05.936Z,15.24
2024-01-28T10:36:33.770Z,15.90
2024-01-28T10:39:06.420Z,15.85
2024-01-28T10:41:39.081Z,15.98
2024-01-28T10:44:06.055Z,16.25
2024-01-28T10:46:32.683Z,16.37
2024-01-28T10:49:01.764Z,15.96
2024-01-28T10:51:28.695Z,16.21
2024-01-28T10:54:01.277Z,16.33
2024-01-28T10:56:28.146Z,16.57
2024-01-28T10:58:54.781Z,16.40
2024-01-28T11:01:21.663Z,16.61
2024-01-28T11:03:49.152Z,15.94
2024-01-28T11:06:15.948Z,15.98
2024-01-28T11:08:42.598Z,16.55
2024-01-28T11:11:18.190Z,16.55
2024-01-28T11:13:45.328Z,15.94
2024-01-28T11:16:12.408Z,16.51
2024-01-28T11:18:39.055Z,16.19
2024-01-28T11:21:06.340Z,16.29
2024-01-28T11:23:33.021Z,16.30
2024-01-28T11:26:03.212Z,16.60
2024-01-28T11:28:29.784Z,16.33
2024-01-28T11:30:56.476Z,16.61
2024-01-28T11:33:23.773Z,16.42
2024-01-28T11:35:50.500Z,17.06
2024-01-28T11:38:23.771Z,16.68
2024-01-28T11:40:50.450Z,17.18
2024-01-28T11:43:17.801Z,17.65
2024-01-28T11:45:47.665Z,17.33
2024-01-28T11:48:14.468Z,17.15
2024-01-28T11:50:45.377Z,17.74
2024-01-28T11:53:13.444Z,17.34
2024-01-28T11:55:43.870Z,17.70
2024-01-28T11:58:12.724Z,17.88
2024-01-28T12:00:42.772Z,17.85
2024-01-28T12:03:09.559Z,17.95
2024-01-28T12:05:36.310Z,17.55
2024-01-28T12:08:05.860Z,17.65
2024-01-28T12:10:34.147Z,17.18
2024-01-28T12:13:00.743Z,18.10
2024-01-28T12:15:27.405Z,18.20
2024-01-28T12:17:54.013Z,18.49
2024-01-28T12:20:23.638Z,18.38
2024-01-28T12:22:50.377Z,18.34
2024-01-28T12:25:19.921Z,19.23
2024-01-28T12:27:46.407Z,19.38
2024-01-28T12:30:12.950Z,19.48
2024-01-28T12:32:39.635Z,18.96
2024-01-28T12:35:12.144Z,19.65
2024-01-28T12:37:38.597Z,19.15
2024-01-28T12:40:05.444Z,19.44
2024-01-28T12:42:32.341Z,19.37
2024-01-28T12:44:58.814Z,19.34
2024-01-28T12:47:25.345Z,19.51
2024-01-28T12:49:52.305Z,19.11
2024-01-28T12:52:18.739Z,19.47
2024-01-28T12:54:45.276Z,19.41
2024-01-28T12:57:11.878Z,18.98
2024-01-28T12:59:38.320Z,19.15
2024-01-28T13:02:07.744Z,18.85
2024-01-28T13:04:34.389Z,18.66
2024-01-28T13:07:01.078Z,18.61
2024-01-28T13:09:27.724Z,18.99
2024-01-28T13:11:54.903Z,18.32
2024-01-28T13:14:21.731Z,18.09
2024-01-28T13:16:49.298Z,17.93
2024-01-28T13:19:16.262Z,18.07
2024-01-28T13:21:43.964Z,18.46
2024-01-28T13:24:10.613Z,17.50
2024-01-28T13:26:37.217Z,16.81
2024-01-28T13:29:06.094Z,17.30
2024-01-28T13:31:33.468Z,19.00
2024-01-28T13:34:00.268Z,24.86
2024-01-28T13:36:34.346Z,17.49
2024-01-28T13:39:06.930Z,21.26
2024-01-28T13:41:33.827Z,17.65
2024-01-28T13:44:00.400Z,18.73
2024-01-28T13:46:26.983Z,18.20
2024-01-28T13:48:53.781Z,18.05
2024-01-28T13:51:20.585Z,18.42
2024-01-28T13:53:49.543Z,18.01
2024-01-28T13:56:16.369Z,18.14
2024-01-28T13:58:43.007Z,18.83
2024-01-28T14:01:09.769Z,18.30
2024-01-28T14:03:40.650Z,17.69
2024-01-28T14:06:09.012Z,17.83
2024-01-28T14:08:35.598Z,18.01
2024-01-28T14:11:03.247Z,18.61
2024-01-28T14:13:30.127Z,18.56
2024-01-28T14:15:56.745Z,18.31
2024-01-28T14:18:23.391Z,17.83
2024-01-28T14:20:55.983Z,18.34
2024-01-28T14:23:22.559Z,19.49
2024-01-28T14:25:49.360Z,18.41
2024-01-28T14:28:18.184Z,18.03
2024-01-28T14:30:44.812Z,17.93
2024-01-28T14:33:14.861Z,17.73
2024-01-28T14:35:41.585Z,17.91
2024-01-28T14:38:08.422Z,17.30
2024-01-28T14:40:37.994Z,17.95
2024-01-28T14:43:04.762Z,18.12
2024-01-28T14:45:31.372Z,18.06
2024-01-28T14:47:58.080Z,17.64
2024-01-28T14:50:24.746Z,17.16
2024-01-28T14:52:51.308Z,17.05
2024-01-28T14:55:17.920Z,18.69
2024-01-28T14:57:44.558Z,21.89
2024-01-28T15:00:11.131Z,26.64
2024-01-28T15:02:37.975Z,30.41
2024-01-28T15:05:05.024Z,39.78
2024-01-28T15:07:31.917Z,23.06
2024-01-28T15:09:58.579Z,16.51
2024-01-28T15:12:26.028Z,16.39
2024-01-28T15:14:52.968Z,16.35
2024-01-28T15:17:19.564Z,16.26
2024-01-28T15:19:46.262Z,16.58
2024-01-28T15:22:13.018Z,17.01
2024-01-28T15:24:39.653Z,16.11
2024-01-28T15:27:06.270Z,16.84
2024-01-28T15:29:33.138Z,16.65
2024-01-28T15:32:09.181Z,15.81
2024-01-28T15:34:35.910Z,16.66
2024-01-28T15:37:02.725Z,15.76
2024-01-28T15:39:29.439Z,15.78
2024-01-28T15:41:56.313Z,15.62
2024-01-28T15:44:23.282Z,16.05
2024-01-28T15:46:49.933Z,15.67
2024-01-28T15:49:16.656Z,16.65
2024-01-28T15:51:46.147Z,15.49
2024-01-28T15:54:12.815Z,15.67
2024-01-28T15:56:39.553Z,16.37
2024-01-28T15:59:06.220Z,16.17
2024-01-28T16:01:33.599Z,17.19
2024-01-28T16:04:00.751Z,16.95
2024-01-28T16:06:29.709Z,16.55
2024-01-28T16:08:56.613Z,16.76
2024-01-28T16:11:23.687Z,17.04
2024-01-28T16:13:50.309Z,16.64
2024-01-28T16:16:18.094Z,16.97
2024-01-28T16:18:48.491Z,17.23
2024-01-28T16:21:15.178Z,16.63
2024-01-28T16:23:42.500Z,17.25
2024-01-28T16:26:09.319Z,17.74
2024-01-28T16:28:35.905Z,17.77
2024-01-28T16:31:02.815Z,18.14
2024-01-28T16:33:32.055Z,18.19
2024-01-28T16:36:02.369Z,17.97
2024-01-28T16:38:28.998Z,17.55
2024-01-28T16:40:55.685Z,17.79
2024-01-28T16:43:22.362Z,17.57
2024-01-28T16:45:49.153Z,18.51
2024-01-28T16:48:15.790Z,19.29
2024-01-28T16:50:45.456Z,18.50
2024-01-28T16:53:11.876Z,16.81
2024-01-28T16:55:38.419Z,17.11
2024-01-28T16:58:05.332Z,17.58
2024-01-28T17:00:37.943Z,18.08
2024-01-28T17:03:04.677Z,18.44
2024-01-28T17:05:31.224Z,18.72
2024-01-28T17:07:57.725Z,18.13
2024-01-28T17:10:24.181Z,18.42
2024-01-28T17:12:50.905Z,18.58
2024-01-28T17:15:17.588Z,17.86
2024-01-28T17:17:44.062Z,17.62
2024-01-28T17:20:10.649Z,17.30
2024-01-28T17:22:39.254Z,18.12
2024-01-28T17:25:08.011Z,18.06
2024-01-28T17:27:35.862Z,18.51
2024-01-28T17:30:02.355Z,18.28
2024-01-28T17:32:28.819Z,18.87
2024-01-28T17:34:58.976Z,18.91
2024-01-28T17:37:26.152Z,18.40
2024-01-28T17:39:52.979Z,18.63
2024-01-28T17:42:20.665Z,17.88
2024-01-28T17:44:53.282Z,18.22
2024-01-28T17:47:19.872Z,18.39
2024-01-28T17:49:46.578Z,18.13
2024-01-28T17:52:13.302Z,19.80
2024-01-28T17:54:40.161Z,19.47
2024-01-28T17:57:07.119Z,19.20
2024-01-28T17:59:33.790Z,19.63
2024-01-28T18:02:00.394Z,20.34
2024-01-28T18:04:27.212Z,20.53
2024-01-28T18:06:53.947Z,20.47
2024-01-28T18:09:21.231Z,20.08
2024-01-28T18:11:47.928Z,21.11
2024-01-28T18:14:14.579Z,21.75
2024-01-28T18:16:42.193Z,22.38
2024-01-28T18:19:08.862Z,22.65
2024-01-28T18:21:35.534Z,23.49
2024-01-28T18:24:02.222Z,23.78
2024-01-28T18:26:28.850Z,21.64
2024-01-28T18:28:55.515Z,20.96
2024-01-28T18:31:22.836Z,20.59
2024-01-28T18:33:49.556Z,20.24
2024-01-28T18:36:16.633Z,21.17
2024-01-28T18:38:43.298Z,20.67
2024-01-28T18:41:09.918Z,20.59
2024-01-28T18:43:38.690Z,19.85
2024-01-28T18:46:05.287Z,21.01
2024-01-28T18:48:31.921Z,22.00
2024-01-28T18:50:58.471Z,22.59
2024-01-28T18:53:27.296Z,21.63
2024-01-28T18:55:53.750Z,21.22
2024-01-28T18:58:25.313Z,21.37
2024-01-28T19:00:52.816Z,21.08
2024-01-28T19:03:39.323Z,21.57
2024-01-28T19:06:25.856Z,21.68
2024-01-28T19:09:12.400Z,22.89
2024-01-28T19:12:01.134Z,24.13
2024-01-28T19:14:48.794Z,24.15
2024-01-28T19:17:35.514Z,23.91
2024-01-28T19:20:21.989Z,24.44
2024-01-28T19:22:48.443Z,23.60
2024-01-28T19:25:17.859Z,23.30
2024-01-28T19:27:47.434Z,23.22
2024-01-28T19:30:14.195Z,23.17
2024-01-28T19:32:41.634Z,23.54
2024-01-28T19:35:08.131Z,23.80
2024-01-28T19:37:54.626Z,22.52
2024-01-28T19:40:21.091Z,21.83
2024-01-28T19:42:47.633Z,21.31
2024-01-28T19:45:15.496Z,21.37
2024-01-28T19:48:04.685Z,21.55
2024-01-28T19:50:31.167Z,20.97
2024-01-28T19:52:58.587Z,21.37
2024-01-28T19:55:45.030Z,21.45
2024-01-28T19:58:11.423Z,21.51
2024-01-28T20:00:37.972Z,21.66
2024-01-28T20:03:04.394Z,22.18
2024-01-28T20:05:34.838Z,22.55
2024-01-28T20:08:01.571Z,22.62
2024-01-28T20:10:27.997Z,22.90
2024-01-28T20:12:54.441Z,23.15
2024-01-28T20:15:41.251Z,22.39
2024-01-28T20:18:07.799Z,22.49
2024-01-28T20:20:35.271Z,22.37
2024-01-28T20:23:04.732Z,22.76
2024-01-28T20:25:31.226Z,23.03
2024-01-28T20:27:59.150Z,23.34
2024-01-28T20:30:26.756Z,23.51
2024-01-28T20:32:53.282Z,23.92
2024-01-28T20:35:19.894Z,23.91
2024-01-28T20:37:48.621Z,22.98
2024-01-28T20:40:15.162Z,21.28
2024-01-28T20:42:41.646Z,21.22
2024-01-28T20:45:08.206Z,21.10
2024-01-28T20:47:34.630Z,19.07
2024-01-28T20:50:05.875Z,18.43
2024-01-28T20:52:32.568Z,17.23
2024-01-28T20:54:59.325Z,17.08
2024-01-28T20:57:28.193Z,17.87
2024-01-28T20:59:55.906Z,21.09
2024-01-28T21:02:22.519Z,19.20
2024-01-28T21:04:55.165Z,19.04
2024-01-28T21:07:21.757Z,17.91
2024-01-28T21:09:54.376Z,17.11
2024-01-28T21:12:23.542Z,15.06
2024-01-28T21:14:50.569Z,15.10
2024-01-28T21:17:17.204Z,14.63
2024-01-28T21:19:44.095Z,15.17
2024-01-28T21:22:11.001Z,14.81
2024-01-28T21:24:37.764Z,14.76
2024-01-28T21:27:04.421Z,15.23
2024-01-28T21:29:31.005Z,15.69
2024-01-28T21:31:57.809Z,15.69
2024-01-28T21:34:24.627Z,16.08
2024-01-28T21:36:51.351Z,17.28
2024-01-28T21:39:18.018Z,17.83
2024-01-28T21:41:44.598Z,17.63
2024-01-28T21:44:11.234Z,17.85
2024-01-28T21:46:37.736Z,17.85
2024-01-28T21:49:04.441Z,18.56
2024-01-28T21:51:31.017Z,18.66
2024-01-28T21:53:57.480Z,19.37
2024-01-28T21:56:24.178Z,19.55
2024-01-28T21:58:51.661Z,19.38
2024-01-28T22:01:18.303Z,20.93
2024-01-28T22:03:44.886Z,21.31
2024-01-28T22:06:11.856Z,21.36
2024-01-28T22:08:58.289Z,22.11
2024-01-28T22:11:44.712Z,22.39
2024-01-28T22:14:31.210Z,22.12
2024-01-28T22:16:57.730Z,22.74
2024-01-28T22:19:24.438Z,24.13
2024-01-28T22:21:50.996Z,25.48
2024-01-28T22:24:20.738Z,24.97
2024-01-28T22:26:47.201Z,25.14
2024-01-28T22:29:13.673Z,24.34
2024-01-28T22:31:40.415Z,23.82
2024-01-28T22:34:06.973Z,25.22
2024-01-28T22:36:34.446Z,26.42
2024-01-28T22:39:00.914Z,25.82
2024-01-28T22:41:28.702Z,25.10
2024-01-28T22:43:55.174Z,23.67
2024-01-28T22:46:22.830Z,21.72
2024-01-28T22:48:50.219Z,21.69
2024-01-28T22:51:16.850Z,20.65
2024-01-28T22:53:43.464Z,19.42
2024-01-28T22:56:10.040Z,18.45
2024-01-28T22:58:36.874Z,20.46
2024-01-28T23:01:03.504Z,23.76
2024-01-28T23:03:30.398Z,29.56
2024-01-28T23:05:57.094Z,28.71
2024-01-28T23:08:23.766Z,25.02
2024-01-28T23:10:50.363Z,21.22
2024-01-28T23:13:17.241Z,19.21
2024-01-28T23:15:43.746Z,17.30
2024-01-28T23:18:10.293Z,16.63
2024-01-28T23:20:36.844Z,16.53
2024-01-28T23:23:03.268Z,17.01
2024-01-28T23:25:29.691Z,16.96
2024-01-28T23:27:56.608Z,16.87
2024-01-28T23:30:23.754Z,20.48
2024-01-28T23:32:50.566Z,22.24
2024-01-28T23:35:19.444Z,23.95
2024-01-28T23:37:45.975Z,22.52
2024-01-28T23:40:12.700Z,19.45
2024-01-28T23:42:39.318Z,19.06
2024-01-28T23:45:05.827Z,19.36
2024-01-28T23:47:32.334Z,19.37
2024-01-28T23:49:58.854Z,18.37
2024-01-28T23:52:25.345Z,17.55
2024-01-28T23:54:52.440Z,16.52
2024-01-28T23:57:18.982Z,15.66
2024-01-28T23:59:45.455Z,15.08
